sensor_id;sensor_type;location;lat;lon;timestamp;P1;durP1;ratioP1;P2;durP2;ratioP2
45684;SDS011;46836;48.388;16.210;2022-12-18T00:01:20;10.77;;;5.20;;
45684;SDS011;46836;48.388;16.210;2022-12-18T00:03:52;10.70;;;5.15;;
45684;SDS011;46836;48.388;16.210;2022-12-18T00:06:21;11.95;;;6.03;;
45684;SDS011;46836;48.388;16.210;2022-12-18T00:08:49;9.30;;;5.75;;
45684;SDS011;46836;48.388;16.210;2022-12-18T00:11:17;12.43;;;6.28;;
45684;SDS011;46836;48.388;16.210;2022-12-18T00:13:45;11.88;;;6.32;;
45684;SDS011;46836;48.388;16.210;2022-12-18T00:16:15;11.55;;;6.43;;
45684;SDS011;46836;48.388;16.210;2022-12-18T00:18:50;9.43;;;5.57;;
45684;SDS011;46836;48.388;16.210;2022-12-18T00:21:19;14.48;;;5.75;;
45684;SDS011;46836;48.388;16.210;2022-12-18T00:23:47;10.15;;;5.80;;
45684;SDS011;46836;48.388;16.210;2022-12-18T00:26:18;12.18;;;6.00;;
45684;SDS011;46836;48.388;16.210;2022-12-18T00:28:48;10.57;;;5.90;;
45684;SDS011;46836;48.388;16.210;2022-12-18T00:31:17;9.70;;;5.75;;
45684;SDS011;46836;48.388;16.210;2022-12-18T00:33:46;14.55;;;7.05;;
45684;SDS011;46836;48.388;16.210;2022-12-18T00:36:17;11.77;;;5.75;;
45684;SDS011;46836;48.388;16.210;2022-12-18T00:38:49;8.52;;;5.75;;
45684;SDS011;46836;48.388;16.210;2022-12-18T00:41:16;9.75;;;5.97;;
45684;SDS011;46836;48.388;16.210;2022-12-18T00:44:05;7.20;;;5.32;;
45684;SDS011;46836;48.388;16.210;2022-12-18T00:46:34;10.82;;;6.32;;
45684;SDS011;46836;48.388;16.210;2022-12-18T00:49:01;12.00;;;7.25;;
45684;SDS011;46836;48.388;16.210;2022-12-18T00:51:28;12.68;;;6.65;;
45684;SDS011;46836;48.388;16.210;2022-12-18T00:53:55;13.40;;;7.18;;
45684;SDS011;46836;48.388;16.210;2022-12-18T00:56:22;9.85;;;6.15;;
45684;SDS011;46836;48.388;16.210;2022-12-18T00:58:50;13.93;;;7.53;;
45684;SDS011;46836;48.388;16.210;2022-12-18T01:01:17;15.38;;;9.10;;
45684;SDS011;46836;48.388;16.210;2022-12-18T01:03:45;10.00;;;6.55;;
45684;SDS011;46836;48.388;16.210;2022-12-18T01:06:13;10.77;;;6.55;;
45684;SDS011;46836;48.388;16.210;2022-12-18T01:08:41;12.45;;;7.30;;
45684;SDS011;46836;48.388;16.210;2022-12-18T01:11:09;17.50;;;9.40;;
45684;SDS011;46836;48.388;16.210;2022-12-18T01:13:40;25.40;;;10.48;;
45684;SDS011;46836;48.388;16.210;2022-12-18T01:16:07;14.20;;;7.35;;
45684;SDS011;46836;48.388;16.210;2022-12-18T01:18:35;12.25;;;8.00;;
45684;SDS011;46836;48.388;16.210;2022-12-18T01:21:06;14.60;;;8.40;;
45684;SDS011;46836;48.388;16.210;2022-12-18T01:23:34;13.77;;;6.45;;
45684;SDS011;46836;48.388;16.210;2022-12-18T01:26:06;12.88;;;7.00;;
45684;SDS011;46836;48.388;16.210;2022-12-18T01:28:35;11.77;;;7.55;;
45684;SDS011;46836;48.388;16.210;2022-12-18T01:33:38;9.27;;;5.55;;
45684;SDS011;46836;48.388;16.210;2022-12-18T01:36:06;11.60;;;7.45;;
45684;SDS011;46836;48.388;16.210;2022-12-18T01:38:34;8.85;;;5.40;;
45684;SDS011;46836;48.388;16.210;2022-12-18T01:41:01;11.07;;;6.63;;
45684;SDS011;46836;48.388;16.210;2022-12-18T01:43:43;13.80;;;7.85;;
45684;SDS011;46836;48.388;16.210;2022-12-18T01:46:13;12.18;;;7.53;;
45684;SDS011;46836;48.388;16.210;2022-12-18T01:48:41;11.73;;;7.32;;
45684;SDS011;46836;48.388;16.210;2022-12-18T01:51:09;15.15;;;7.60;;
45684;SDS011;46836;48.388;16.210;2022-12-18T01:53:37;16.30;;;7.45;;
45684;SDS011;46836;48.388;16.210;2022-12-18T01:56:07;14.02;;;8.52;;
45684;SDS011;46836;48.388;16.210;2022-12-18T02:01:28;12.88;;;6.95;;
45684;SDS011;46836;48.388;16.210;2022-12-18T02:04:14;15.95;;;7.93;;
45684;SDS011;46836;48.388;16.210;2022-12-18T02:06:49;11.23;;;7.05;;
45684;SDS011;46836;48.388;16.210;2022-12-18T02:09:23;10.27;;;5.45;;
45684;SDS011;46836;48.388;16.210;2022-12-18T02:12:33;12.82;;;7.28;;
45684;SDS011;46836;48.388;16.210;2022-12-18T02:20:22;17.10;;;8.07;;
45684;SDS011;46836;48.388;16.210;2022-12-18T02:28:31;21.55;;;11.13;;
45684;SDS011;46836;48.388;16.210;2022-12-18T02:31:02;18.85;;;10.88;;
45684;SDS011;46836;48.388;16.210;2022-12-18T02:33:34;20.05;;;10.15;;
45684;SDS011;46836;48.388;16.210;2022-12-18T02:36:04;13.70;;;8.15;;
45684;SDS011;46836;48.388;16.210;2022-12-18T02:38:32;16.08;;;7.53;;
45684;SDS011;46836;48.388;16.210;2022-12-18T02:41:01;12.23;;;6.90;;
45684;SDS011;46836;48.388;16.210;2022-12-18T02:43:29;9.30;;;6.00;;
45684;SDS011;46836;48.388;16.210;2022-12-18T02:45:57;12.88;;;7.45;;
45684;SDS011;46836;48.388;16.210;2022-12-18T02:48:31;10.55;;;6.03;;
45684;SDS011;46836;48.388;16.210;2022-12-18T02:53:39;16.08;;;7.90;;
45684;SDS011;46836;48.388;16.210;2022-12-18T02:56:13;14.35;;;7.57;;
45684;SDS011;46836;48.388;16.210;2022-12-18T03:04:16;8.73;;;6.10;;
45684;SDS011;46836;48.388;16.210;2022-12-18T03:07:08;11.82;;;6.80;;
45684;SDS011;46836;48.388;16.210;2022-12-18T03:09:42;13.45;;;6.78;;
45684;SDS011;46836;48.388;16.210;2022-12-18T03:12:17;10.90;;;5.95;;
45684;SDS011;46836;48.388;16.210;2022-12-18T03:14:59;11.48;;;6.55;;
45684;SDS011;46836;48.388;16.210;2022-12-18T03:17:32;13.43;;;6.75;;
45684;SDS011;46836;48.388;16.210;2022-12-18T03:20:05;14.82;;;8.20;;
45684;SDS011;46836;48.388;16.210;2022-12-18T03:22:40;20.10;;;8.85;;
45684;SDS011;46836;48.388;16.210;2022-12-18T03:25:11;21.55;;;8.68;;
45684;SDS011;46836;48.388;16.210;2022-12-18T03:27:42;22.25;;;10.90;;
45684;SDS011;46836;48.388;16.210;2022-12-18T03:30:14;79.40;;;25.55;;
45684;SDS011;46836;48.388;16.210;2022-12-18T03:32:43;41.17;;;17.80;;
45684;SDS011;46836;48.388;16.210;2022-12-18T03:35:18;37.40;;;17.05;;
45684;SDS011;46836;48.388;16.210;2022-12-18T03:37:49;45.67;;;19.60;;
45684;SDS011;46836;48.388;16.210;2022-12-18T03:40:16;56.65;;;23.65;;
45684;SDS011;46836;48.388;16.210;2022-12-18T03:43:03;60.25;;;24.80;;
45684;SDS011;46836;48.388;16.210;2022-12-18T03:45:42;39.38;;;17.08;;
45684;SDS011;46836;48.388;16.210;2022-12-18T03:48:29;39.47;;;18.58;;
45684;SDS011;46836;48.388;16.210;2022-12-18T03:50:59;35.05;;;17.42;;
45684;SDS011;46836;48.388;16.210;2022-12-18T03:53:37;15.15;;;10.10;;
45684;SDS011;46836;48.388;16.210;2022-12-18T03:56:15;20.58;;;11.13;;
45684;SDS011;46836;48.388;16.210;2022-12-18T03:58:44;11.60;;;8.68;;
45684;SDS011;46836;48.388;16.210;2022-12-18T04:01:14;15.68;;;8.75;;
45684;SDS011;46836;48.388;16.210;2022-12-18T04:03:44;15.65;;;8.65;;
45684;SDS011;46836;48.388;16.210;2022-12-18T04:06:15;16.52;;;9.13;;
45684;SDS011;46836;48.388;16.210;2022-12-18T04:08:44;22.38;;;9.77;;
45684;SDS011;46836;48.388;16.210;2022-12-18T04:11:12;17.30;;;9.07;;
45684;SDS011;46836;48.388;16.210;2022-12-18T04:13:39;21.40;;;11.23;;
45684;SDS011;46836;48.388;16.210;2022-12-18T04:16:09;18.48;;;10.18;;
45684;SDS011;46836;48.388;16.210;2022-12-18T04:18:36;14.18;;;7.82;;
45684;SDS011;46836;48.388;16.210;2022-12-18T04:21:03;15.40;;;8.32;;
45684;SDS011;46836;48.388;16.210;2022-12-18T04:23:30;15.05;;;7.72;;
45684;SDS011;46836;48.388;16.210;2022-12-18T04:25:57;15.43;;;7.65;;
45684;SDS011;46836;48.388;16.210;2022-12-18T04:28:24;12.93;;;8.15;;
45684;SDS011;46836;48.388;16.210;2022-12-18T04:30:51;10.68;;;7.05;;
45684;SDS011;46836;48.388;16.210;2022-12-18T04:33:18;15.60;;;8.38;;
45684;SDS011;46836;48.388;16.210;2022-12-18T04:35:46;14.57;;;7.78;;
45684;SDS011;46836;48.388;16.210;2022-12-18T04:38:13;18.15;;;8.50;;
45684;SDS011;46836;48.388;16.210;2022-12-18T04:40:40;19.15;;;9.25;;
45684;SDS011;46836;48.388;16.210;2022-12-18T04:43:08;14.60;;;9.10;;
45684;SDS011;46836;48.388;16.210;2022-12-18T04:45:36;18.63;;;8.13;;
45684;SDS011;46836;48.388;16.210;2022-12-18T04:48:03;16.13;;;8.23;;
45684;SDS011;46836;48.388;16.210;2022-12-18T04:50:31;25.50;;;8.70;;
45684;SDS011;46836;48.388;16.210;2022-12-18T04:52:58;14.73;;;8.32;;
45684;SDS011;46836;48.388;16.210;2022-12-18T04:55:25;17.48;;;8.23;;
45684;SDS011;46836;48.388;16.210;2022-12-18T04:57:53;15.07;;;8.50;;
45684;SDS011;46836;48.388;16.210;2022-12-18T05:00:20;11.02;;;7.18;;
45684;SDS011;46836;48.388;16.210;2022-12-18T05:02:47;13.25;;;7.70;;
45684;SDS011;46836;48.388;16.210;2022-12-18T05:05:14;14.85;;;7.32;;
45684;SDS011;46836;48.388;16.210;2022-12-18T05:07:41;10.45;;;6.88;;
45684;SDS011;46836;48.388;16.210;2022-12-18T05:10:09;14.05;;;7.63;;
45684;SDS011;46836;48.388;16.210;2022-12-18T05:12:36;14.52;;;8.70;;
45684;SDS011;46836;48.388;16.210;2022-12-18T05:15:26;18.08;;;9.80;;
45684;SDS011;46836;48.388;16.210;2022-12-18T05:17:57;22.52;;;9.20;;
45684;SDS011;46836;48.388;16.210;2022-12-18T05:20:25;17.80;;;9.05;;
45684;SDS011;46836;48.388;16.210;2022-12-18T05:22:53;15.70;;;7.88;;
45684;SDS011;46836;48.388;16.210;2022-12-18T05:25:21;14.45;;;8.63;;
45684;SDS011;46836;48.388;16.210;2022-12-18T05:27:49;20.17;;;9.45;;
45684;SDS011;46836;48.388;16.210;2022-12-18T05:30:16;12.40;;;7.70;;
45684;SDS011;46836;48.388;16.210;2022-12-18T05:32:43;20.83;;;10.45;;
45684;SDS011;46836;48.388;16.210;2022-12-18T05:35:10;15.10;;;8.07;;
45684;SDS011;46836;48.388;16.210;2022-12-18T05:37:37;18.55;;;9.80;;
45684;SDS011;46836;48.388;16.210;2022-12-18T05:40:08;15.95;;;10.35;;
45684;SDS011;46836;48.388;16.210;2022-12-18T05:42:36;21.50;;;11.15;;
45684;SDS011;46836;48.388;16.210;2022-12-18T05:45:04;15.13;;;8.95;;
45684;SDS011;46836;48.388;16.210;2022-12-18T05:47:32;27.85;;;11.27;;
45684;SDS011;46836;48.388;16.210;2022-12-18T05:49:59;15.05;;;8.82;;
45684;SDS011;46836;48.388;16.210;2022-12-18T05:52:26;16.88;;;9.25;;
45684;SDS011;46836;48.388;16.210;2022-12-18T05:54:53;18.38;;;8.98;;
45684;SDS011;46836;48.388;16.210;2022-12-18T05:57:20;18.42;;;10.07;;
45684;SDS011;46836;48.388;16.210;2022-12-18T05:59:47;22.55;;;12.05;;
45684;SDS011;46836;48.388;16.210;2022-12-18T06:02:14;30.10;;;12.55;;
45684;SDS011;46836;48.388;16.210;2022-12-18T06:04:41;29.25;;;14.18;;
45684;SDS011;46836;48.388;16.210;2022-12-18T06:07:08;23.48;;;11.60;;
45684;SDS011;46836;48.388;16.210;2022-12-18T06:09:35;20.38;;;10.93;;
45684;SDS011;46836;48.388;16.210;2022-12-18T06:12:02;24.58;;;11.38;;
45684;SDS011;46836;48.388;16.210;2022-12-18T06:14:29;20.15;;;10.20;;
45684;SDS011;46836;48.388;16.210;2022-12-18T06:16:56;20.98;;;9.35;;
45684;SDS011;46836;48.388;16.210;2022-12-18T06:19:23;19.23;;;10.35;;
45684;SDS011;46836;48.388;16.210;2022-12-18T06:21:50;19.88;;;8.77;;
45684;SDS011;46836;48.388;16.210;2022-12-18T06:24:17;15.20;;;8.75;;
45684;SDS011;46836;48.388;16.210;2022-12-18T06:26:44;24.42;;;12.35;;
45684;SDS011;46836;48.388;16.210;2022-12-18T06:29:11;21.15;;;10.13;;
45684;SDS011;46836;48.388;16.210;2022-12-18T06:31:38;22.70;;;10.15;;
45684;SDS011;46836;48.388;16.210;2022-12-18T06:34:05;22.05;;;11.10;;
45684;SDS011;46836;48.388;16.210;2022-12-18T06:36:32;24.08;;;10.70;;
45684;SDS011;46836;48.388;16.210;2022-12-18T06:38:59;19.17;;;10.35;;
45684;SDS011;46836;48.388;16.210;2022-12-18T06:41:26;19.58;;;9.82;;
45684;SDS011;46836;48.388;16.210;2022-12-18T06:43:53;17.77;;;10.27;;
45684;SDS011;46836;48.388;16.210;2022-12-18T06:46:25;16.08;;;10.27;;
45684;SDS011;46836;48.388;16.210;2022-12-18T06:48:52;16.42;;;8.52;;
45684;SDS011;46836;48.388;16.210;2022-12-18T06:51:19;26.52;;;12.30;;
45684;SDS011;46836;48.388;16.210;2022-12-18T06:53:48;17.85;;;8.80;;
45684;SDS011;46836;48.388;16.210;2022-12-18T06:56:16;19.95;;;10.48;;
45684;SDS011;46836;48.388;16.210;2022-12-18T06:58:43;18.38;;;11.48;;
45684;SDS011;46836;48.388;16.210;2022-12-18T07:01:11;19.45;;;10.98;;
45684;SDS011;46836;48.388;16.210;2022-12-18T07:03:39;18.70;;;10.32;;
45684;SDS011;46836;48.388;16.210;2022-12-18T07:06:13;20.08;;;10.48;;
45684;SDS011;46836;48.388;16.210;2022-12-18T07:08:41;23.65;;;10.82;;
45684;SDS011;46836;48.388;16.210;2022-12-18T07:11:08;23.42;;;12.98;;
45684;SDS011;46836;48.388;16.210;2022-12-18T07:13:35;21.20;;;10.95;;
45684;SDS011;46836;48.388;16.210;2022-12-18T07:16:07;21.10;;;11.27;;
45684;SDS011;46836;48.388;16.210;2022-12-18T07:18:46;21.10;;;10.95;;
45684;SDS011;46836;48.388;16.210;2022-12-18T07:21:14;22.52;;;11.20;;
45684;SDS011;46836;48.388;16.210;2022-12-18T07:23:44;16.40;;;9.93;;
45684;SDS011;46836;48.388;16.210;2022-12-18T07:26:15;17.50;;;9.73;;
45684;SDS011;46836;48.388;16.210;2022-12-18T07:28:43;21.30;;;10.50;;
45684;SDS011;46836;48.388;16.210;2022-12-18T07:31:11;23.65;;;11.82;;
45684;SDS011;46836;48.388;16.210;2022-12-18T07:33:43;21.65;;;12.10;;
45684;SDS011;46836;48.388;16.210;2022-12-18T07:36:11;19.40;;;10.30;;
45684;SDS011;46836;48.388;16.210;2022-12-18T07:38:38;21.23;;;9.60;;
45684;SDS011;46836;48.388;16.210;2022-12-18T07:41:06;20.05;;;10.50;;
45684;SDS011;46836;48.388;16.210;2022-12-18T07:43:35;24.95;;;10.57;;
45684;SDS011;46836;48.388;16.210;2022-12-18T07:46:03;20.98;;;10.40;;
45684;SDS011;46836;48.388;16.210;2022-12-18T07:48:31;21.67;;;11.88;;
45684;SDS011;46836;48.388;16.210;2022-12-18T07:51:02;23.30;;;11.07;;
45684;SDS011;46836;48.388;16.210;2022-12-18T07:53:30;21.48;;;12.07;;
45684;SDS011;46836;48.388;16.210;2022-12-18T07:55:59;24.05;;;12.00;;
45684;SDS011;46836;48.388;16.210;2022-12-18T07:58:48;20.35;;;10.70;;
45684;SDS011;46836;48.388;16.210;2022-12-18T08:01:15;26.58;;;11.80;;
45684;SDS011;46836;48.388;16.210;2022-12-18T08:03:43;30.02;;;14.15;;
45684;SDS011;46836;48.388;16.210;2022-12-18T08:06:11;22.23;;;12.73;;
45684;SDS011;46836;48.388;16.210;2022-12-18T08:08:38;22.27;;;10.75;;
45684;SDS011;46836;48.388;16.210;2022-12-18T08:11:07;18.60;;;10.63;;
45684;SDS011;46836;48.388;16.210;2022-12-18T08:13:34;22.52;;;10.65;;
45684;SDS011;46836;48.388;16.210;2022-12-18T08:16:03;22.25;;;10.57;;
45684;SDS011;46836;48.388;16.210;2022-12-18T08:18:32;29.55;;;13.10;;
45684;SDS011;46836;48.388;16.210;2022-12-18T08:21:09;28.85;;;14.38;;
45684;SDS011;46836;48.388;16.210;2022-12-18T08:23:41;19.20;;;13.27;;
45684;SDS011;46836;48.388;16.210;2022-12-18T08:26:09;21.23;;;12.43;;
45684;SDS011;46836;48.388;16.210;2022-12-18T08:28:38;20.60;;;12.55;;
45684;SDS011;46836;48.388;16.210;2022-12-18T08:31:05;22.45;;;12.65;;
45684;SDS011;46836;48.388;16.210;2022-12-18T08:33:35;27.80;;;13.23;;
45684;SDS011;46836;48.388;16.210;2022-12-18T08:36:05;30.35;;;15.07;;
45684;SDS011;46836;48.388;16.210;2022-12-18T08:38:33;24.15;;;11.45;;
45684;SDS011;46836;48.388;16.210;2022-12-18T08:41:00;25.92;;;12.85;;
45684;SDS011;46836;48.388;16.210;2022-12-18T08:43:29;34.60;;;14.70;;
45684;SDS011;46836;48.388;16.210;2022-12-18T08:46:14;23.13;;;14.07;;
45684;SDS011;46836;48.388;16.210;2022-12-18T08:48:42;30.17;;;13.68;;
45684;SDS011;46836;48.388;16.210;2022-12-18T08:51:10;31.48;;;13.75;;
45684;SDS011;46836;48.388;16.210;2022-12-18T08:53:37;24.40;;;12.60;;
45684;SDS011;46836;48.388;16.210;2022-12-18T08:56:05;22.52;;;13.05;;
45684;SDS011;46836;48.388;16.210;2022-12-18T08:58:32;30.42;;;11.45;;
45684;SDS011;46836;48.388;16.210;2022-12-18T09:01:03;19.25;;;10.85;;
45684;SDS011;46836;48.388;16.210;2022-12-18T09:03:32;25.77;;;14.25;;
45684;SDS011;46836;48.388;16.210;2022-12-18T09:05:59;28.92;;;16.02;;
45684;SDS011;46836;48.388;16.210;2022-12-18T09:08:26;23.42;;;13.10;;
45684;SDS011;46836;48.388;16.210;2022-12-18T09:10:54;32.28;;;14.90;;
45684;SDS011;46836;48.388;16.210;2022-12-18T09:13:21;26.85;;;14.65;;
45684;SDS011;46836;48.388;16.210;2022-12-18T09:15:51;23.65;;;14.43;;
45684;SDS011;46836;48.388;16.210;2022-12-18T09:18:20;24.45;;;14.05;;
45684;SDS011;46836;48.388;16.210;2022-12-18T09:20:48;23.50;;;11.68;;
45684;SDS011;46836;48.388;16.210;2022-12-18T09:23:19;28.02;;;13.85;;
45684;SDS011;46836;48.388;16.210;2022-12-18T09:25:48;26.15;;;12.90;;
45684;SDS011;46836;48.388;16.210;2022-12-18T09:28:18;22.77;;;12.07;;
45684;SDS011;46836;48.388;16.210;2022-12-18T09:30:47;27.08;;;13.98;;
45684;SDS011;46836;48.388;16.210;2022-12-18T09:33:15;22.63;;;11.63;;
45684;SDS011;46836;48.388;16.210;2022-12-18T09:35:44;25.02;;;12.98;;
45684;SDS011;46836;48.388;16.210;2022-12-18T09:38:13;24.17;;;12.23;;
45684;SDS011;46836;48.388;16.210;2022-12-18T09:40:46;21.63;;;12.13;;
45684;SDS011;46836;48.388;16.210;2022-12-18T09:43:19;31.77;;;13.57;;
45684;SDS011;46836;48.388;16.210;2022-12-18T09:45:55;26.65;;;12.43;;
45684;SDS011;46836;48.388;16.210;2022-12-18T09:48:31;22.77;;;13.00;;
45684;SDS011;46836;48.388;16.210;2022-12-18T09:51:12;26.50;;;13.25;;
45684;SDS011;46836;48.388;16.210;2022-12-18T09:53:40;25.90;;;15.35;;
45684;SDS011;46836;48.388;16.210;2022-12-18T09:56:16;25.45;;;13.23;;
45684;SDS011;46836;48.388;16.210;2022-12-18T09:58:55;26.63;;;12.93;;
45684;SDS011;46836;48.388;16.210;2022-12-18T10:01:28;26.85;;;13.55;;
45684;SDS011;46836;48.388;16.210;2022-12-18T10:04:09;24.50;;;14.95;;
45684;SDS011;46836;48.388;16.210;2022-12-18T10:09:32;26.35;;;13.45;;
45684;SDS011;46836;48.388;16.210;2022-12-18T10:12:24;25.40;;;11.45;;
45684;SDS011;46836;48.388;16.210;2022-12-18T10:18:03;26.80;;;13.25;;
45684;SDS011;46836;48.388;16.210;2022-12-18T10:21:13;21.40;;;12.30;;
45684;SDS011;46836;48.388;16.210;2022-12-18T10:23:52;31.33;;;13.13;;
45684;SDS011;46836;48.388;16.210;2022-12-18T10:26:36;20.67;;;10.65;;
45684;SDS011;46836;48.388;16.210;2022-12-18T10:29:08;23.05;;;11.60;;
45684;SDS011;46836;48.388;16.210;2022-12-18T10:31:39;23.02;;;12.00;;
45684;SDS011;46836;48.388;16.210;2022-12-18T10:34:12;24.30;;;11.55;;
45684;SDS011;46836;48.388;16.210;2022-12-18T10:36:39;30.52;;;13.32;;
45684;SDS011;46836;48.388;16.210;2022-12-18T10:41:50;20.05;;;10.80;;
45684;SDS011;46836;48.388;16.210;2022-12-18T10:44:22;20.58;;;11.45;;
45684;SDS011;46836;48.388;16.210;2022-12-18T10:46:50;22.05;;;11.35;;
45684;SDS011;46836;48.388;16.210;2022-12-18T10:49:29;20.67;;;11.27;;
45684;SDS011;46836;48.388;16.210;2022-12-18T10:52:05;20.25;;;11.40;;
45684;SDS011;46836;48.388;16.210;2022-12-18T10:59:58;21.92;;;11.65;;
45684;SDS011;46836;48.388;16.210;2022-12-18T11:02:34;24.13;;;13.02;;
45684;SDS011;46836;48.388;16.210;2022-12-18T11:05:22;21.35;;;10.45;;
45684;SDS011;46836;48.388;16.210;2022-12-18T11:07:55;21.95;;;10.73;;
45684;SDS011;46836;48.388;16.210;2022-12-18T11:10:33;19.92;;;10.15;;
45684;SDS011;46836;48.388;16.210;2022-12-18T11:13:10;21.17;;;10.07;;
45684;SDS011;46836;48.388;16.210;2022-12-18T11:15:43;18.35;;;9.90;;
45684;SDS011;46836;48.388;16.210;2022-12-18T11:18:17;18.10;;;10.27;;
45684;SDS011;46836;48.388;16.210;2022-12-18T11:20:52;21.75;;;11.18;;
45684;SDS011;46836;48.388;16.210;2022-12-18T11:23:24;18.48;;;8.93;;
45684;SDS011;46836;48.388;16.210;2022-12-18T11:25:55;20.52;;;9.32;;
45684;SDS011;46836;48.388;16.210;2022-12-18T11:36:50;24.73;;;11.10;;
45684;SDS011;46836;48.388;16.210;2022-12-18T11:39:31;24.48;;;9.00;;
45684;SDS011;46836;48.388;16.210;2022-12-18T11:44:57;21.05;;;9.85;;
45684;SDS011;46836;48.388;16.210;2022-12-18T11:47:56;20.55;;;11.18;;
45684;SDS011;46836;48.388;16.210;2022-12-18T11:50:49;19.15;;;10.27;;
45684;SDS011;46836;48.388;16.210;2022-12-18T11:53:25;20.88;;;10.10;;
45684;SDS011;46836;48.388;16.210;2022-12-18T11:56:05;18.88;;;9.30;;
45684;SDS011;46836;48.388;16.210;2022-12-18T11:58:59;17.83;;;9.82;;
45684;SDS011;46836;48.388;16.210;2022-12-18T12:07:21;23.60;;;11.00;;
45684;SDS011;46836;48.388;16.210;2022-12-18T12:15:29;22.75;;;12.15;;
45684;SDS011;46836;48.388;16.210;2022-12-18T12:39:27;27.40;;;12.05;;
45684;SDS011;46836;48.388;16.210;2022-12-18T12:41:57;20.08;;;10.57;;
45684;SDS011;46836;48.388;16.210;2022-12-18T12:44:44;26.27;;;11.68;;
45684;SDS011;46836;48.388;16.210;2022-12-18T12:47:30;25.08;;;11.30;;
45684;SDS011;46836;48.388;16.210;2022-12-18T12:50:03;16.52;;;10.32;;
45684;SDS011;46836;48.388;16.210;2022-12-18T12:52:48;20.30;;;10.13;;
45684;SDS011;46836;48.388;16.210;2022-12-18T12:55:21;24.02;;;11.20;;
45684;SDS011;46836;48.388;16.210;2022-12-18T13:00:44;26.23;;;12.50;;
45684;SDS011;46836;48.388;16.210;2022-12-18T13:06:29;18.20;;;11.25;;
45684;SDS011;46836;48.388;16.210;2022-12-18T13:09:00;21.65;;;12.32;;
45684;SDS011;46836;48.388;16.210;2022-12-18T13:11:38;24.23;;;10.70;;
45684;SDS011;46836;48.388;16.210;2022-12-18T13:14:27;23.27;;;12.10;;
45684;SDS011;46836;48.388;16.210;2022-12-18T13:20:02;27.35;;;12.95;;
45684;SDS011;46836;48.388;16.210;2022-12-18T13:22:48;25.25;;;12.13;;
45684;SDS011;46836;48.388;16.210;2022-12-18T13:25:33;24.80;;;11.73;;
45684;SDS011;46836;48.388;16.210;2022-12-18T13:28:07;29.90;;;12.95;;
45684;SDS011;46836;48.388;16.210;2022-12-18T13:38:45;30.65;;;13.80;;
45684;SDS011;46836;48.388;16.210;2022-12-18T13:43:43;24.80;;;11.63;;
45684;SDS011;46836;48.388;16.210;2022-12-18T13:49:02;26.05;;;13.10;;
45684;SDS011;46836;48.388;16.210;2022-12-18T13:51:33;24.63;;;11.00;;
45684;SDS011;46836;48.388;16.210;2022-12-18T13:54:17;22.85;;;11.05;;
45684;SDS011;46836;48.388;16.210;2022-12-18T13:56:55;32.38;;;11.05;;
45684;SDS011;46836;48.388;16.210;2022-12-18T14:01:58;25.27;;;13.57;;
45684;SDS011;46836;48.388;16.210;2022-12-18T14:04:30;29.50;;;12.90;;
45684;SDS011;46836;48.388;16.210;2022-12-18T14:09:39;24.88;;;10.73;;
45684;SDS011;46836;48.388;16.210;2022-12-18T14:12:16;27.38;;;12.43;;
45684;SDS011;46836;48.388;16.210;2022-12-18T14:15:11;30.80;;;14.77;;
45684;SDS011;46836;48.388;16.210;2022-12-18T14:18:02;33.58;;;13.43;;
45684;SDS011;46836;48.388;16.210;2022-12-18T14:20:49;26.27;;;13.50;;
45684;SDS011;46836;48.388;16.210;2022-12-18T14:26:00;29.33;;;12.65;;
45684;SDS011;46836;48.388;16.210;2022-12-18T14:28:31;31.02;;;13.15;;
45684;SDS011;46836;48.388;16.210;2022-12-18T14:30:59;28.85;;;14.20;;
45684;SDS011;46836;48.388;16.210;2022-12-18T14:33:26;31.20;;;13.98;;
45684;SDS011;46836;48.388;16.210;2022-12-18T14:38:35;22.05;;;12.50;;
45684;SDS011;46836;48.388;16.210;2022-12-18T14:43:38;28.17;;;11.88;;
45684;SDS011;46836;48.388;16.210;2022-12-18T14:49:02;29.63;;;13.90;;
45684;SDS011;46836;48.388;16.210;2022-12-18T14:51:32;33.80;;;15.43;;
45684;SDS011;46836;48.388;16.210;2022-12-18T14:54:04;26.73;;;12.48;;
45684;SDS011;46836;48.388;16.210;2022-12-18T14:56:46;23.05;;;12.23;;
45684;SDS011;46836;48.388;16.210;2022-12-18T15:04:39;26.95;;;13.68;;
45684;SDS011;46836;48.388;16.210;2022-12-18T15:09:38;37.58;;;14.10;;
45684;SDS011;46836;48.388;16.210;2022-12-18T15:20:41;27.23;;;13.43;;
45684;SDS011;46836;48.388;16.210;2022-12-18T15:23:14;30.27;;;13.43;;
45684;SDS011;46836;48.388;16.210;2022-12-18T15:25:47;32.85;;;13.88;;
45684;SDS011;46836;48.388;16.210;2022-12-18T15:28:36;25.83;;;11.88;;
45684;SDS011;46836;48.388;16.210;2022-12-18T15:33:42;31.10;;;13.48;;
45684;SDS011;46836;48.388;16.210;2022-12-18T15:36:20;31.98;;;15.25;;
45684;SDS011;46836;48.388;16.210;2022-12-18T15:38:53;27.65;;;12.52;;
45684;SDS011;46836;48.388;16.210;2022-12-18T15:41:31;32.97;;;13.18;;
45684;SDS011;46836;48.388;16.210;2022-12-18T15:44:01;26.70;;;12.25;;
45684;SDS011;46836;48.388;16.210;2022-12-18T15:46:42;31.20;;;14.48;;
45684;SDS011;46836;48.388;16.210;2022-12-18T15:49:10;33.20;;;14.55;;
45684;SDS011;46836;48.388;16.210;2022-12-18T15:51:39;36.88;;;13.88;;
45684;SDS011;46836;48.388;16.210;2022-12-18T15:54:09;31.27;;;13.20;;
45684;SDS011;46836;48.388;16.210;2022-12-18T15:56:41;26.70;;;14.15;;
45684;SDS011;46836;48.388;16.210;2022-12-18T15:59:28;33.78;;;14.88;;
45684;SDS011;46836;48.388;16.210;2022-12-18T16:01:56;31.20;;;14.13;;
45684;SDS011;46836;48.388;16.210;2022-12-18T16:04:25;39.85;;;15.05;;
45684;SDS011;46836;48.388;16.210;2022-12-18T16:06:53;30.75;;;13.52;;
45684;SDS011;46836;48.388;16.210;2022-12-18T16:09:40;33.25;;;13.85;;
45684;SDS011;46836;48.388;16.210;2022-12-18T16:12:19;32.00;;;13.80;;
45684;SDS011;46836;48.388;16.210;2022-12-18T16:14:52;34.40;;;15.85;;
45684;SDS011;46836;48.388;16.210;2022-12-18T16:17:19;31.10;;;14.38;;
45684;SDS011;46836;48.388;16.210;2022-12-18T16:19:47;30.55;;;13.82;;
45684;SDS011;46836;48.388;16.210;2022-12-18T16:22:25;31.10;;;14.85;;
45684;SDS011;46836;48.388;16.210;2022-12-18T16:24:55;30.42;;;14.38;;
45684;SDS011;46836;48.388;16.210;2022-12-18T16:27:25;36.25;;;14.77;;
45684;SDS011;46836;48.388;16.210;2022-12-18T16:29:53;27.40;;;14.10;;
45684;SDS011;46836;48.388;16.210;2022-12-18T16:32:21;28.33;;;13.55;;
45684;SDS011;46836;48.388;16.210;2022-12-18T16:34:50;31.42;;;14.38;;
45684;SDS011;46836;48.388;16.210;2022-12-18T16:37:17;31.88;;;13.70;;
45684;SDS011;46836;48.388;16.210;2022-12-18T16:39:44;39.05;;;15.25;;
45684;SDS011;46836;48.388;16.210;2022-12-18T16:42:13;23.95;;;12.38;;
45684;SDS011;46836;48.388;16.210;2022-12-18T16:44:46;28.38;;;11.38;;
45684;SDS011;46836;48.388;16.210;2022-12-18T16:47:16;30.75;;;13.73;;
45684;SDS011;46836;48.388;16.210;2022-12-18T16:49:45;34.67;;;15.18;;
45684;SDS011;46836;48.388;16.210;2022-12-18T16:52:15;30.60;;;14.10;;
45684;SDS011;46836;48.388;16.210;2022-12-18T16:54:44;34.80;;;16.25;;
45684;SDS011;46836;48.388;16.210;2022-12-18T16:57:12;33.88;;;14.88;;
45684;SDS011;46836;48.388;16.210;2022-12-18T16:59:42;32.05;;;13.43;;